sensor_id;sensor_type;location;lat;lon;timestamp;P1;durP1;ratioP1;P2;durP2;ratioP2
22841;SDS011;11587;47.064;15.444;2023-02-28T00:00:51;0.30;;;0.30;;
22841;SDS011;11587;47.064;15.444;2023-02-28T00:03:17;0.30;;;0.30;;
22841;SDS011;11587;47.064;15.444;2023-02-28T00:05:43;0.30;;;0.30;;
22841;SDS011;11587;47.064;15.444;2023-02-28T00:08:10;0.30;;;0.30;;
22841;SDS011;11587;47.064;15.444;2023-02-28T00:10:36;0.30;;;0.30;;
22841;SDS011;11587;47.064;15.444;2023-02-28T00:13:03;0.30;;;0.30;;
22841;SDS011;11587;47.064;15.444;2023-02-28T00:15:30;0.30;;;0.30;;
22841;SDS011;11587;47.064;15.444;2023-02-28T00:17:56;0.30;;;0.30;;
22841;SDS011;11587;47.064;15.444;2023-02-28T00:20:22;0.30;;;0.30;;
22841;SDS011;11587;47.064;15.444;2023-02-28T00:22:49;0.30;;;0.30;;
22841;SDS011;11587;47.064;15.444;2023-02-28T00:25:20;0.30;;;0.30;;
22841;SDS011;11587;47.064;15.444;2023-02-28T00:27:46;0.30;;;0.30;;
22841;SDS011;11587;47.064;15.444;2023-02-28T00:30:15;0.30;;;0.30;;
22841;SDS011;11587;47.064;15.444;2023-02-28T00:32:42;0.30;;;0.30;;
22841;SDS011;11587;47.064;15.444;2023-02-28T00:35:08;0.30;;;0.30;;
22841;SDS011;11587;47.064;15.444;2023-02-28T00:37:35;0.30;;;0.30;;
22841;SDS011;11587;47.064;15.444;2023-02-28T00:40:01;0.30;;;0.30;;
22841;SDS011;11587;47.064;15.444;2023-02-28T00:42:29;0.30;;;0.30;;
22841;SDS011;11587;47.064;15.444;2023-02-28T00:44:55;0.30;;;0.30;;
22841;SDS011;11587;47.064;15.444;2023-02-28T00:47:21;0.30;;;0.30;;
22841;SDS011;11587;47.064;15.444;2023-02-28T00:49:47;0.30;;;0.30;;
22841;SDS011;11587;47.064;15.444;2023-02-28T00:52:13;0.30;;;0.30;;
22841;SDS011;11587;47.064;15.444;2023-02-28T00:54:40;0.40;;;0.40;;
22841;SDS011;11587;47.064;15.444;2023-02-28T00:57:06;0.30;;;0.30;;
22841;SDS011;11587;47.064;15.444;2023-02-28T00:59:32;0.30;;;0.30;;
22841;SDS011;11587;47.064;15.444;2023-02-28T01:01:58;0.40;;;0.40;;
22841;SDS011;11587;47.064;15.444;2023-02-28T01:04:24;0.30;;;0.30;;
22841;SDS011;11587;47.064;15.444;2023-02-28T01:06:50;0.30;;;0.30;;
22841;SDS011;11587;47.064;15.444;2023-02-28T01:09:16;0.30;;;0.30;;
22841;SDS011;11587;47.064;15.444;2023-02-28T01:11:42;0.30;;;0.30;;
22841;SDS011;11587;47.064;15.444;2023-02-28T01:14:11;0.30;;;0.30;;
22841;SDS011;11587;47.064;15.444;2023-02-28T01:16:37;0.30;;;0.30;;
22841;SDS011;11587;47.064;15.444;2023-02-28T01:19:03;0.30;;;0.30;;
22841;SDS011;11587;47.064;15.444;2023-02-28T01:21:29;0.30;;;0.30;;
22841;SDS011;11587;47.064;15.444;2023-02-28T01:23:56;0.30;;;0.30;;
22841;SDS011;11587;47.064;15.444;2023-02-28T01:26:22;0.30;;;0.30;;
22841;SDS011;11587;47.064;15.444;2023-02-28T01:28:49;0.30;;;0.30;;
22841;SDS011;11587;47.064;15.444;2023-02-28T01:31:16;0.30;;;0.30;;
22841;SDS011;11587;47.064;15.444;2023-02-28T01:33:43;0.30;;;0.30;;
22841;SDS011;11587;47.064;15.444;2023-02-28T01:36:09;0.30;;;0.30;;
22841;SDS011;11587;47.064;15.444;2023-02-28T01:38:36;0.30;;;0.30;;
22841;SDS011;11587;47.064;15.444;2023-02-28T01:41:02;0.30;;;0.30;;
22841;SDS011;11587;47.064;15.444;2023-02-28T01:43:39;0.30;;;0.30;;
22841;SDS011;11587;47.064;15.444;2023-02-28T01:46:17;0.30;;;0.30;;
22841;SDS011;11587;47.064;15.444;2023-02-28T01:49:26;0.30;;;0.30;;
22841;SDS011;11587;47.064;15.444;2023-02-28T01:51:34;0.30;;;0.30;;
22841;SDS011;11587;47.064;15.444;2023-02-28T01:54:06;0.40;;;0.40;;
22841;SDS011;11587;47.064;15.444;2023-02-28T01:56:38;0.30;;;0.30;;
22841;SDS011;11587;47.064;15.444;2023-02-28T01:59:07;0.30;;;0.30;;
22841;SDS011;11587;47.064;15.444;2023-02-28T02:01:33;0.40;;;0.40;;
22841;SDS011;11587;47.064;15.444;2023-02-28T02:04:00;0.30;;;0.30;;
22841;SDS011;11587;47.064;15.444;2023-02-28T02:06:37;0.30;;;0.30;;
22841;SDS011;11587;47.064;15.444;2023-02-28T02:09:03;0.30;;;0.30;;
22841;SDS011;11587;47.064;15.444;2023-02-28T02:11:31;0.30;;;0.30;;
22841;SDS011;11587;47.064;15.444;2023-02-28T02:26:40;0.30;;;0.30;;
22841;SDS011;11587;47.064;15.444;2023-02-28T02:29:20;0.30;;;0.30;;
22841;SDS011;11587;47.064;15.444;2023-02-28T02:41:52;0.60;;;0.60;;
22841;SDS011;11587;47.064;15.444;2023-02-28T02:44:28;0.60;;;0.60;;
22841;SDS011;11587;47.064;15.444;2023-02-28T02:47:07;0.60;;;0.60;;
22841;SDS011;11587;47.064;15.444;2023-02-28T02:49:35;0.60;;;0.60;;
22841;SDS011;11587;47.064;15.444;2023-02-28T02:52:03;0.30;;;0.30;;
22841;SDS011;11587;47.064;15.444;2023-02-28T02:54:36;0.30;;;0.30;;
22841;SDS011;11587;47.064;15.444;2023-02-28T02:57:04;0.30;;;0.30;;
22841;SDS011;11587;47.064;15.444;2023-02-28T02:59:33;0.30;;;0.30;;
22841;SDS011;11587;47.064;15.444;2023-02-28T03:02:02;0.40;;;0.40;;
22841;SDS011;11587;47.064;15.444;2023-02-28T03:04:34;0.30;;;0.30;;
22841;SDS011;11587;47.064;15.444;2023-02-28T03:07:02;0.30;;;0.30;;
22841;SDS011;11587;47.064;15.444;2023-02-28T03:09:28;0.30;;;0.30;;
22841;SDS011;11587;47.064;15.444;2023-02-28T03:11:54;0.30;;;0.30;;
22841;SDS011;11587;47.064;15.444;2023-02-28T03:19:41;0.30;;;0.30;;
22841;SDS011;11587;47.064;15.444;2023-02-28T03:27:29;0.30;;;0.30;;
22841;SDS011;11587;47.064;15.444;2023-02-28T03:30:20;0.30;;;0.30;;
22841;SDS011;11587;47.064;15.444;2023-02-28T03:35:16;0.30;;;0.30;;
22841;SDS011;11587;47.064;15.444;2023-02-28T03:37:48;0.30;;;0.30;;
22841;SDS011;11587;47.064;15.444;2023-02-28T03:40:17;0.30;;;0.30;;
22841;SDS011;11587;47.064;15.444;2023-02-28T03:42:45;0.30;;;0.30;;
22841;SDS011;11587;47.064;15.444;2023-02-28T03:45:16;0.30;;;0.30;;
22841;SDS011;11587;47.064;15.444;2023-02-28T03:50:39;0.40;;;0.40;;
22841;SDS011;11587;47.064;15.444;2023-02-28T03:53:39;0.30;;;0.30;;
22841;SDS011;11587;47.064;15.444;2023-02-28T03:58:32;0.30;;;0.30;;
22841;SDS011;11587;47.064;15.444;2023-02-28T04:01:05;0.70;;;0.70;;
22841;SDS011;11587;47.064;15.444;2023-02-28T04:03:36;0.60;;;0.60;;
22841;SDS011;11587;47.064;15.444;2023-02-28T04:06:03;0.60;;;0.60;;
22841;SDS011;11587;47.064;15.444;2023-02-28T04:08:29;0.60;;;0.60;;
22841;SDS011;11587;47.064;15.444;2023-02-28T04:11:06;0.60;;;0.60;;
22841;SDS011;11587;47.064;15.444;2023-02-28T04:13:37;0.70;;;0.70;;
22841;SDS011;11587;47.064;15.444;2023-02-28T04:16:20;0.60;;;0.60;;
22841;SDS011;11587;47.064;15.444;2023-02-28T04:18:47;0.70;;;0.70;;
22841;SDS011;11587;47.064;15.444;2023-02-28T04:21:13;0.60;;;0.60;;
22841;SDS011;11587;47.064;15.444;2023-02-28T04:23:39;0.60;;;0.60;;
22841;SDS011;11587;47.064;15.444;2023-02-28T04:26:05;0.70;;;0.70;;
22841;SDS011;11587;47.064;15.444;2023-02-28T04:28:31;0.60;;;0.60;;
22841;SDS011;11587;47.064;15.444;2023-02-28T04:30:58;0.60;;;0.60;;
22841;SDS011;11587;47.064;15.444;2023-02-28T04:33:25;0.60;;;0.60;;
22841;SDS011;11587;47.064;15.444;2023-02-28T04:36:01;0.60;;;0.60;;
22841;SDS011;11587;47.064;15.444;2023-02-28T04:38:27;0.60;;;0.60;;
22841;SDS011;11587;47.064;15.444;2023-02-28T04:40:56;0.60;;;0.60;;
22841;SDS011;11587;47.064;15.444;2023-02-28T04:43:22;0.60;;;0.60;;
22841;SDS011;11587;47.064;15.444;2023-02-28T04:45:48;0.68;;;0.68;;
22841;SDS011;11587;47.064;15.444;2023-02-28T04:48:14;0.70;;;0.70;;
22841;SDS011;11587;47.064;15.444;2023-02-28T04:50:40;0.60;;;0.60;;
22841;SDS011;11587;47.064;15.444;2023-02-28T04:53:06;0.70;;;0.70;;
22841;SDS011;11587;47.064;15.444;2023-02-28T04:55:32;0.60;;;0.60;;
22841;SDS011;11587;47.064;15.444;2023-02-28T04:57:58;0.60;;;0.60;;
22841;SDS011;11587;47.064;15.444;2023-02-28T05:00:24;0.70;;;0.70;;
22841;SDS011;11587;47.064;15.444;2023-02-28T05:02:50;0.60;;;0.60;;
22841;SDS011;11587;47.064;15.444;2023-02-28T05:05:16;0.60;;;0.60;;
22841;SDS011;11587;47.064;15.444;2023-02-28T05:07:43;0.60;;;0.60;;
22841;SDS011;11587;47.064;15.444;2023-02-28T05:10:10;0.60;;;0.60;;
22841;SDS011;11587;47.064;15.444;2023-02-28T05:12:36;0.70;;;0.70;;
22841;SDS011;11587;47.064;15.444;2023-02-28T05:15:03;0.60;;;0.60;;
22841;SDS011;11587;47.064;15.444;2023-02-28T05:17:30;0.60;;;0.60;;
22841;SDS011;11587;47.064;15.444;2023-02-28T05:19:56;0.60;;;0.60;;
22841;SDS011;11587;47.064;15.444;2023-02-28T05:22:22;0.60;;;0.60;;
22841;SDS011;11587;47.064;15.444;2023-02-28T05:24:48;0.70;;;0.70;;
22841;SDS011;11587;47.064;15.444;2023-02-28T05:27:14;0.60;;;0.60;;
22841;SDS011;11587;47.064;15.444;2023-02-28T05:29:40;0.60;;;0.60;;
22841;SDS011;11587;47.064;15.444;2023-02-28T05:32:11;0.60;;;0.60;;
22841;SDS011;11587;47.064;15.444;2023-02-28T05:34:38;0.60;;;0.60;;
22841;SDS011;11587;47.064;15.444;2023-02-28T05:37:04;0.60;;;0.60;;
22841;SDS011;11587;47.064;15.444;2023-02-28T05:39:31;0.60;;;0.60;;
22841;SDS011;11587;47.064;15.444;2023-02-28T05:41:57;0.30;;;0.30;;
22841;SDS011;11587;47.064;15.444;2023-02-28T05:44:23;0.30;;;0.30;;
22841;SDS011;11587;47.064;15.444;2023-02-28T05:46:49;0.30;;;0.30;;
22841;SDS011;11587;47.064;15.444;2023-02-28T05:49:15;0.30;;;0.30;;
22841;SDS011;11587;47.064;15.444;2023-02-28T05:51:41;0.30;;;0.30;;
22841;SDS011;11587;47.064;15.444;2023-02-28T05:54:07;0.32;;;0.32;;
22841;SDS011;11587;47.064;15.444;2023-02-28T05:56:33;0.30;;;0.30;;
22841;SDS011;11587;47.064;15.444;2023-02-28T05:59:00;0.30;;;0.30;;
22841;SDS011;11587;47.064;15.444;2023-02-28T06:06:24;0.30;;;0.30;;
22841;SDS011;11587;47.064;15.444;2023-02-28T06:08:50;0.40;;;0.40;;
22841;SDS011;11587;47.064;15.444;2023-02-28T06:11:17;0.30;;;0.30;;
22841;SDS011;11587;47.064;15.444;2023-02-28T06:13:44;0.30;;;0.30;;
22841;SDS011;11587;47.064;15.444;2023-02-28T06:16:11;0.30;;;0.30;;
22841;SDS011;11587;47.064;15.444;2023-02-28T06:18:37;0.30;;;0.30;;
22841;SDS011;11587;47.064;15.444;2023-02-28T06:21:04;0.40;;;0.40;;
22841;SDS011;11587;47.064;15.444;2023-02-28T06:23:30;0.30;;;0.30;;
22841;SDS011;11587;47.064;15.444;2023-02-28T06:25:56;0.30;;;0.30;;
22841;SDS011;11587;47.064;15.444;2023-02-28T06:28:23;0.30;;;0.30;;
22841;SDS011;11587;47.064;15.444;2023-02-28T06:30:50;0.30;;;0.30;;
22841;SDS011;11587;47.064;15.444;2023-02-28T06:33:16;0.30;;;0.30;;
22841;SDS011;11587;47.064;15.444;2023-02-28T06:35:46;0.30;;;0.30;;
22841;SDS011;11587;47.064;15.444;2023-02-28T06:38:13;0.32;;;0.32;;
22841;SDS011;11587;47.064;15.444;2023-02-28T06:40:39;0.30;;;0.30;;
22841;SDS011;11587;47.064;15.444;2023-02-28T06:43:05;0.30;;;0.30;;
22841;SDS011;11587;47.064;15.444;2023-02-28T06:45:31;0.30;;;0.30;;
22841;SDS011;11587;47.064;15.444;2023-02-28T06:47:58;0.30;;;0.30;;
22841;SDS011;11587;47.064;15.444;2023-02-28T06:50:25;0.30;;;0.30;;
22841;SDS011;11587;47.064;15.444;2023-02-28T06:52:52;0.30;;;0.30;;
22841;SDS011;11587;47.064;15.444;2023-02-28T06:55:19;0.40;;;0.40;;
22841;SDS011;11587;47.064;15.444;2023-02-28T06:57:45;0.30;;;0.30;;
22841;SDS011;11587;47.064;15.444;2023-02-28T07:00:11;0.30;;;0.30;;
22841;SDS011;11587;47.064;15.444;2023-02-28T07:02:38;0.30;;;0.30;;
22841;SDS011;11587;47.064;15.444;2023-02-28T07:05:07;0.30;;;0.30;;
22841;SDS011;11587;47.064;15.444;2023-02-28T07:07:33;0.30;;;0.30;;
22841;SDS011;11587;47.064;15.444;2023-02-28T07:10:01;0.30;;;0.30;;
22841;SDS011;11587;47.064;15.444;2023-02-28T07:12:27;0.30;;;0.30;;
22841;SDS011;11587;47.064;15.444;2023-02-28T07:14:53;0.30;;;0.30;;
22841;SDS011;11587;47.064;15.444;2023-02-28T07:17:20;0.30;;;0.30;;
22841;SDS011;11587;47.064;15.444;2023-02-28T07:19:46;0.30;;;0.30;;
22841;SDS011;11587;47.064;15.444;2023-02-28T07:22:12;0.30;;;0.30;;
22841;SDS011;11587;47.064;15.444;2023-02-28T07:24:39;0.30;;;0.30;;
22841;SDS011;11587;47.064;15.444;2023-02-28T07:27:05;0.30;;;0.30;;
22841;SDS011;11587;47.064;15.444;2023-02-28T07:29:31;0.30;;;0.30;;
22841;SDS011;11587;47.064;15.444;2023-02-28T07:31:57;0.30;;;0.30;;
22841;SDS011;11587;47.064;15.444;2023-02-28T07:34:23;0.30;;;0.30;;
22841;SDS011;11587;47.064;15.444;2023-02-28T07:36:52;0.30;;;0.30;;
22841;SDS011;11587;47.064;15.444;2023-02-28T07:39:19;0.30;;;0.30;;
22841;SDS011;11587;47.064;15.444;2023-02-28T07:41:45;0.30;;;0.30;;
22841;SDS011;11587;47.064;15.444;2023-02-28T07:44:11;0.30;;;0.30;;
22841;SDS011;11587;47.064;15.444;2023-02-28T07:46:37;0.30;;;0.30;;
22841;SDS011;11587;47.064;15.444;2023-02-28T07:49:04;0.30;;;0.30;;
22841;SDS011;11587;47.064;15.444;2023-02-28T07:51:30;0.30;;;0.30;;
22841;SDS011;11587;47.064;15.444;2023-02-28T07:53:56;0.30;;;0.30;;
22841;SDS011;11587;47.064;15.444;2023-02-28T07:56:22;0.30;;;0.30;;
22841;SDS011;11587;47.064;15.444;2023-02-28T07:58:48;0.30;;;0.30;;
22841;SDS011;11587;47.064;15.444;2023-02-28T08:01:14;0.30;;;0.30;;
22841;SDS011;11587;47.064;15.444;2023-02-28T08:03:41;0.30;;;0.30;;
22841;SDS011;11587;47.064;15.444;2023-02-28T08:06:07;0.30;;;0.30;;
22841;SDS011;11587;47.064;15.444;2023-02-28T08:08:34;0.30;;;0.30;;
22841;SDS011;11587;47.064;15.444;2023-02-28T08:11:00;0.30;;;0.30;;
22841;SDS011;11587;47.064;15.444;2023-02-28T08:13:27;0.30;;;0.30;;
22841;SDS011;11587;47.064;15.444;2023-02-28T08:15:54;0.30;;;0.30;;
22841;SDS011;11587;47.064;15.444;2023-02-28T08:18:20;0.30;;;0.30;;
22841;SDS011;11587;47.064;15.444;2023-02-28T08:20:46;0.30;;;0.30;;
22841;SDS011;11587;47.064;15.444;2023-02-28T08:23:13;0.30;;;0.30;;
22841;SDS011;11587;47.064;15.444;2023-02-28T08:25:39;0.30;;;0.30;;
22841;SDS011;11587;47.064;15.444;2023-02-28T08:28:05;0.30;;;0.30;;
22841;SDS011;11587;47.064;15.444;2023-02-28T08:30:31;0.30;;;0.30;;
22841;SDS011;11587;47.064;15.444;2023-02-28T08:32:57;0.30;;;0.30;;
22841;SDS011;11587;47.064;15.444;2023-02-28T08:35:23;0.60;;;0.60;;
22841;SDS011;11587;47.064;15.444;2023-02-28T08:37:50;0.57;;;0.57;;
22841;SDS011;11587;47.064;15.444;2023-02-28T08:40:16;0.50;;;0.50;;
22841;SDS011;11587;47.064;15.444;2023-02-28T08:42:45;0.60;;;0.60;;
22841;SDS011;11587;47.064;15.444;2023-02-28T08:45:12;0.50;;;0.50;;
22841;SDS011;11587;47.064;15.444;2023-02-28T08:47:38;0.60;;;0.60;;
22841;SDS011;11587;47.064;15.444;2023-02-28T08:50:04;0.60;;;0.60;;
22841;SDS011;11587;47.064;15.444;2023-02-28T08:52:30;0.60;;;0.60;;
22841;SDS011;11587;47.064;15.444;2023-02-28T08:54:56;0.60;;;0.60;;
22841;SDS011;11587;47.064;15.444;2023-02-28T08:57:22;0.63;;;0.63;;
22841;SDS011;11587;47.064;15.444;2023-02-28T08:59:51;0.50;;;0.50;;
22841;SDS011;11587;47.064;15.444;2023-02-28T09:02:17;0.50;;;0.50;;
22841;SDS011;11587;47.064;15.444;2023-02-28T09:04:43;0.50;;;0.50;;
22841;SDS011;11587;47.064;15.444;2023-02-28T09:07:10;0.50;;;0.50;;
22841;SDS011;11587;47.064;15.444;2023-02-28T09:09:36;0.55;;;0.55;;
22841;SDS011;11587;47.064;15.444;2023-02-28T09:12:03;0.50;;;0.50;;
22841;SDS011;11587;47.064;15.444;2023-02-28T09:14:30;0.55;;;0.55;;
22841;SDS011;11587;47.064;15.444;2023-02-28T09:16:56;0.50;;;0.50;;
22841;SDS011;11587;47.064;15.444;2023-02-28T09:19:22;0.50;;;0.50;;
22841;SDS011;11587;47.064;15.444;2023-02-28T09:21:48;0.50;;;0.50;;
22841;SDS011;11587;47.064;15.444;2023-02-28T09:24:14;0.52;;;0.52;;
22841;SDS011;11587;47.064;15.444;2023-02-28T09:26:40;0.50;;;0.50;;
22841;SDS011;11587;47.064;15.444;2023-02-28T09:29:06;0.50;;;0.50;;
22841;SDS011;11587;47.064;15.444;2023-02-28T09:31:32;0.50;;;0.50;;
22841;SDS011;11587;47.064;15.444;2023-02-28T09:33:58;0.50;;;0.50;;
22841;SDS011;11587;47.064;15.444;2023-02-28T09:36:25;0.52;;;0.52;;
22841;SDS011;11587;47.064;15.444;2023-02-28T09:38:53;0.50;;;0.50;;
22841;SDS011;11587;47.064;15.444;2023-02-28T09:41:20;0.50;;;0.50;;
22841;SDS011;11587;47.064;15.444;2023-02-28T09:43:51;0.50;;;0.50;;
22841;SDS011;11587;47.064;15.444;2023-02-28T09:49:05;0.50;;;0.50;;
22841;SDS011;11587;47.064;15.444;2023-02-28T09:54:01;0.50;;;0.50;;
22841;SDS011;11587;47.064;15.444;2023-02-28T09:56:38;0.50;;;0.50;;
22841;SDS011;11587;47.064;15.444;2023-02-28T09:59:17;0.50;;;0.50;;
22841;SDS011;11587;47.064;15.444;2023-02-28T10:07:10;0.40;;;0.40;;
22841;SDS011;11587;47.064;15.444;2023-02-28T10:09:42;0.50;;;0.50;;
22841;SDS011;11587;47.064;15.444;2023-02-28T10:12:09;0.50;;;0.50;;
22841;SDS011;11587;47.064;15.444;2023-02-28T10:14:36;0.50;;;0.50;;
22841;SDS011;11587;47.064;15.444;2023-02-28T10:17:10;0.50;;;0.50;;
22841;SDS011;11587;47.064;15.444;2023-02-28T10:20:12;0.50;;;0.50;;
22841;SDS011;11587;47.064;15.444;2023-02-28T10:22:34;0.50;;;0.50;;
22841;SDS011;11587;47.064;15.444;2023-02-28T10:25:05;0.50;;;0.50;;
22841;SDS011;11587;47.064;15.444;2023-02-28T10:27:41;0.50;;;0.50;;
22841;SDS011;11587;47.064;15.444;2023-02-28T10:30:09;0.50;;;0.50;;
22841;SDS011;11587;47.064;15.444;2023-02-28T10:32:35;0.43;;;0.43;;
22841;SDS011;11587;47.064;15.444;2023-02-28T10:35:21;0.40;;;0.40;;
22841;SDS011;11587;47.064;15.444;2023-02-28T10:37:49;0.40;;;0.40;;
22841;SDS011;11587;47.064;15.444;2023-02-28T10:43:17;0.40;;;0.40;;
22841;SDS011;11587;47.064;15.444;2023-02-28T10:45:34;0.40;;;0.40;;
22841;SDS011;11587;47.064;15.444;2023-02-28T10:48:26;0.40;;;0.40;;
22841;SDS011;11587;47.064;15.444;2023-02-28T10:58:23;0.40;;;0.40;;
22841;SDS011;11587;47.064;15.444;2023-02-28T11:00:50;0.40;;;0.40;;
22841;SDS011;11587;47.064;15.444;2023-02-28T11:03:25;0.40;;;0.40;;
22841;SDS011;11587;47.064;15.444;2023-02-28T11:05:54;0.40;;;0.40;;
22841;SDS011;11587;47.064;15.444;2023-02-28T11:08:20;0.40;;;0.40;;
22841;SDS011;11587;47.064;15.444;2023-02-28T11:10:47;0.45;;;0.45;;
22841;SDS011;11587;47.064;15.444;2023-02-28T11:13:17;0.47;;;0.47;;
22841;SDS011;11587;47.064;15.444;2023-02-28T11:15:46;0.40;;;0.40;;
22841;SDS011;11587;47.064;15.444;2023-02-28T11:18:20;0.50;;;0.50;;
22841;SDS011;11587;47.064;15.444;2023-02-28T11:20:48;0.50;;;0.50;;
22841;SDS011;11587;47.064;15.444;2023-02-28T11:23:15;0.40;;;0.40;;
22841;SDS011;11587;47.064;15.444;2023-02-28T11:25:53;0.20;;;0.20;;
22841;SDS011;11587;47.064;15.444;2023-02-28T11:28:35;0.20;;;0.20;;
22841;SDS011;11587;47.064;15.444;2023-02-28T11:33:43;0.20;;;0.20;;
22841;SDS011;11587;47.064;15.444;2023-02-28T11:38:39;0.20;;;0.20;;
22841;SDS011;11587;47.064;15.444;2023-02-28T11:41:17;0.10;;;0.10;;
22841;SDS011;11587;47.064;15.444;2023-02-28T11:54:23;0.10;;;0.10;;
22841;SDS011;11587;47.064;15.444;2023-02-28T11:56:54;0.10;;;0.10;;
22841;SDS011;11587;47.064;15.444;2023-02-28T12:12:12;0.20;;;0.20;;
22841;SDS011;11587;47.064;15.444;2023-02-28T12:22:29;0.20;;;0.20;;
22841;SDS011;11587;47.064;15.444;2023-02-28T12:27:28;0.20;;;0.20;;
22841;SDS011;11587;47.064;15.444;2023-02-28T12:29:57;0.20;;;0.20;;
22841;SDS011;11587;47.064;15.444;2023-02-28T12:32:29;0.20;;;0.20;;
22841;SDS011;11587;47.064;15.444;2023-02-28T12:37:25;0.20;;;0.20;;
22841;SDS011;11587;47.064;15.444;2023-02-28T12:39:54;0.20;;;0.20;;
22841;SDS011;11587;47.064;15.444;2023-02-28T12:42:28;0.20;;;0.20;;
22841;SDS011;11587;47.064;15.444;2023-02-28T12:45:40;0.20;;;0.20;;
22841;SDS011;11587;47.064;15.444;2023-02-28T12:47:40;0.20;;;0.20;;
22841;SDS011;11587;47.064;15.444;2023-02-28T12:53:07;0.20;;;0.20;;
22841;SDS011;11587;47.064;15.444;2023-02-28T12:58:20;0.20;;;0.20;;
22841;SDS011;11587;47.064;15.444;2023-02-28T13:06:20;0.20;;;0.20;;
22841;SDS011;11587;47.064;15.444;2023-02-28T13:11:26;0.20;;;0.20;;
22841;SDS011;11587;47.064;15.444;2023-02-28T13:13:58;0.20;;;0.20;;
22841;SDS011;11587;47.064;15.444;2023-02-28T13:16:24;0.10;;;0.10;;
22841;SDS011;11587;47.064;15.444;2023-02-28T13:18:50;0.17;;;0.17;;
22841;SDS011;11587;47.064;15.444;2023-02-28T13:21:28;0.10;;;0.10;;
22841;SDS011;11587;47.064;15.444;2023-02-28T13:26:23;0.20;;;0.20;;
22841;SDS011;11587;47.064;15.444;2023-02-28T13:34:26;0.20;;;0.20;;
22841;SDS011;11587;47.064;15.444;2023-02-28T13:36:57;0.20;;;0.20;;
22841;SDS011;11587;47.064;15.444;2023-02-28T13:42:47;0.20;;;0.20;;
22841;SDS011;11587;47.064;15.444;2023-02-28T13:50:35;0.20;;;0.20;;
22841;SDS011;11587;47.064;15.444;2023-02-28T13:58:24;0.20;;;0.20;;
22841;SDS011;11587;47.064;15.444;2023-02-28T14:06:24;0.20;;;0.20;;
22841;SDS011;11587;47.064;15.444;2023-02-28T14:13:47;0.10;;;0.10;;
22841;SDS011;11587;47.064;15.444;2023-02-28T14:16:14;0.10;;;0.10;;
22841;SDS011;11587;47.064;15.444;2023-02-28T14:18:57;0.10;;;0.10;;
22841;SDS011;11587;47.064;15.444;2023-02-28T14:21:26;0.10;;;0.10;;
22841;SDS011;11587;47.064;15.444;2023-02-28T14:26:29;0.20;;;0.20;;
22841;SDS011;11587;47.064;15.444;2023-02-28T14:29:02;0.20;;;0.20;;
22841;SDS011;11587;47.064;15.444;2023-02-28T14:31:37;0.20;;;0.20;;
22841;SDS011;11587;47.064;15.444;2023-02-28T14:34:20;0.30;;;0.30;;
22841;SDS011;11587;47.064;15.444;2023-02-28T14:36:50;0.20;;;0.20;;
22841;SDS011;11587;47.064;15.444;2023-02-28T14:39:20;0.30;;;0.30;;
22841;SDS011;11587;47.064;15.444;2023-02-28T14:41:47;0.30;;;0.30;;
22841;SDS011;11587;47.064;15.444;2023-02-28T14:44:18;0.35;;;0.35;;
22841;SDS011;11587;47.064;15.444;2023-02-28T14:46:45;0.40;;;0.40;;
22841;SDS011;11587;47.064;15.444;2023-02-28T14:49:16;0.40;;;0.40;;
22841;SDS011;11587;47.064;15.444;2023-02-28T14:51:43;0.40;;;0.40;;
22841;SDS011;11587;47.064;15.444;2023-02-28T14:54:12;0.40;;;0.40;;
22841;SDS011;11587;47.064;15.444;2023-02-28T14:56:39;0.40;;;0.40;;
22841;SDS011;11587;47.064;15.444;2023-02-28T14:59:06;0.40;;;0.40;;
22841;SDS011;11587;47.064;15.444;2023-02-28T15:01:48;0.40;;;0.40;;
22841;SDS011;11587;47.064;15.444;2023-02-28T15:04:18;0.50;;;0.50;;
22841;SDS011;11587;47.064;15.444;2023-02-28T15:06:46;0.40;;;0.40;;
22841;SDS011;11587;47.064;15.444;2023-02-28T15:09:32;0.40;;;0.40;;
22841;SDS011;11587;47.064;15.444;2023-02-28T15:11:58;0.40;;;0.40;;
22841;SDS011;11587;47.064;15.444;2023-02-28T15:14:24;0.40;;;0.40;;
22841;SDS011;11587;47.064;15.444;2023-02-28T15:16:55;0.50;;;0.50;;
22841;SDS011;11587;47.064;15.444;2023-02-28T15:19:24;0.43;;;0.43;;
22841;SDS011;11587;47.064;15.444;2023-02-28T15:21:54;0.40;;;0.40;;
22841;SDS011;11587;47.064;15.444;2023-02-28T15:24:25;0.50;;;0.50;;
22841;SDS011;11587;47.064;15.444;2023-02-28T15:26:56;0.40;;;0.40;;
22841;SDS011;11587;47.064;15.444;2023-02-28T15:29:24;0.43;;;0.43;;
22841;SDS011;11587;47.064;15.444;2023-02-28T15:31:53;0.50;;;0.50;;
22841;SDS011;11587;47.064;15.444;2023-02-28T15:34:29;0.50;;;0.50;;
22841;SDS011;11587;47.064;15.444;2023-02-28T15:36:58;0.50;;;0.50;;
22841;SDS011;11587;47.064;15.444;2023-02-28T15:39:25;0.40;;;0.40;;
22841;SDS011;11587;47.064;15.444;2023-02-28T15:41:52;0.50;;;0.50;;
22841;SDS011;11587;47.064;15.444;2023-02-28T15:44:25;0.40;;;0.40;;
22841;SDS011;11587;47.064;15.444;2023-02-28T15:46:55;0.40;;;0.40;;
22841;SDS011;11587;47.064;15.444;2023-02-28T15:49:22;0.40;;;0.40;;
22841;SDS011;11587;47.064;15.444;2023-02-28T15:51:50;0.20;;;0.20;;
22841;SDS011;11587;47.064;15.444;2023-02-28T15:54:38;0.20;;;0.20;;
22841;SDS011;11587;47.064;15.444;2023-02-28T15:57:04;0.20;;;0.20;;
22841;SDS011;11587;47.064;15.444;2023-02-28T15:59:33;0.20;;;0.20;;
22841;SDS011;11587;47.064;15.444;2023-02-28T16:04:36;0.30;;;0.30;;
22841;SDS011;11587;47.064;15.444;2023-02-28T16:07:04;0.20;;;0.20;;
22841;SDS011;11587;47.064;15.444;2023-02-28T16:09:30;0.30;;;0.30;;
22841;SDS011;11587;47.064;15.444;2023-02-28T16:11:59;0.28;;;0.28;;
22841;SDS011;11587;47.064;15.444;2023-02-28T16:14:26;0.20;;;0.20;;
22841;SDS011;11587;47.064;15.444;2023-02-28T16:16:55;0.20;;;0.20;;
22841;SDS011;11587;47.064;15.444;2023-02-28T16:19:22;0.20;;;0.20;;
22841;SDS011;11587;47.064;15.444;2023-02-28T16:21:48;0.20;;;0.20;;
22841;SDS011;11587;47.064;15.444;2023-02-28T16:24:15;0.25;;;0.25;;
22841;SDS011;11587;47.064;15.444;2023-02-28T16:26:41;0.20;;;0.20;;
22841;SDS011;11587;47.064;15.444;2023-02-28T16:29:09;0.20;;;0.20;;
22841;SDS011;11587;47.064;15.444;2023-02-28T16:31:37;0.22;;;0.22;;
22841;SDS011;11587;47.064;15.444;2023-02-28T16:34:04;0.20;;;0.20;;
22841;SDS011;11587;47.064;15.444;2023-02-28T16:36:30;0.20;;;0.20;;
22841;SDS011;11587;47.064;15.444;2023-02-28T16:38:56;0.30;;;0.30;;
22841;SDS011;11587;47.064;15.444;2023-02-28T16:41:26;0.20;;;0.20;;
22841;SDS011;11587;47.064;15.444;2023-02-28T16:43:54;0.30;;;0.30;;
22841;SDS011;11587;47.064;15.444;2023-02-28T16:46:24;0.30;;;0.30;;
22841;SDS011;11587;47.064;15.444;2023-02-28T16:48:50;0.30;;;0.30;;
22841;SDS011;11587;47.064;15.444;2023-02-28T16:51:17;0.30;;;0.30;;
22841;SDS011;11587;47.064;15.444;2023-02-28T16:53:44;0.20;;;0.20;;
22841;SDS011;11587;47.064;15.444;2023-02-28T16:56:13;0.20;;;0.20;;
22841;SDS011;11587;47.064;15.444;2023-02-28T16:58:40;0.30;;;0.30;;
22841;SDS011;11587;47.064;15.444;2023-02-28T17:01:07;0.22;;;0.22;;
22841;SDS011;11587;47.064;15.444;2023-02-28T17:03:33;0.20;;;0.20;;
22841;SDS011;11587;47.064;15.444;2023-02-28T17:06:01;0.20;;;0.20;;
22841;SDS011;11587;47.064;15.444;2023-02-28T17:08:27;0.28;;;0.28;;
22841;SDS011;11587;47.064;15.444;2023-02-28T17:10:54;0.30;;;0.30;;
22841;SDS011;11587;47.064;15.444;2023-02-28T17:13:20;0.30;;;0.30;;
22841;SDS011;11587;47.064;15.444;2023-02-28T17:15:47;0.30;;;0.30;;
22841;SDS011;11587;47.064;15.444;2023-02-28T17:18:17;0.40;;;0.40;;
22841;SDS011;11587;47.064;15.444;2023-02-28T17:20:46;0.50;;;0.50;;